createdAt,value
2022-11-10T00:01:24.655Z,11.07
2022-11-10T00:07:07.938Z,11.20
2022-11-10T00:12:49.502Z,11.14
2022-11-10T00:18:31.173Z,11.08
2022-11-10T00:24:14.399Z,11.17
2022-11-10T00:29:55.966Z,11.20
2022-11-10T00:35:37.746Z,11.15
2022-11-10T00:41:20.847Z,10.95
2022-11-10T00:47:02.445Z,10.97
2022-11-10T00:52:44.501Z,11.16
2022-11-10T00:58:27.427Z,11.13
2022-11-10T01:04:09.245Z,11.12
2022-11-10T01:09:51.061Z,10.95
2022-11-10T01:15:34.299Z,11.03
2022-11-10T01:21:15.965Z,11.13
2022-11-10T01:26:57.523Z,11.29
2022-11-10T01:32:40.793Z,11.22
2022-11-10T01:38:22.422Z,10.89
2022-11-10T01:44:15.661Z,10.90
2022-11-10T01:49:58.974Z,10.85
2022-11-10T01:55:43.488Z,10.97
2022-11-10T02:01:25.739Z,10.99
2022-11-10T02:07:09.737Z,11.05
2022-11-10T02:12:52.095Z,11.15
2022-11-10T02:18:33.644Z,11.04
2022-11-10T02:24:16.710Z,11.17
2022-11-10T02:29:58.462Z,11.10
2022-11-10T02:35:40.186Z,10.96
2022-11-10T02:41:23.098Z,10.97
2022-11-10T02:47:05.148Z,11.02
2022-11-10T02:52:46.869Z,11.00
2022-11-10T02:58:30.301Z,10.97
2022-11-10T03:04:11.984Z,10.75
2022-11-10T03:09:53.954Z,10.91
2022-11-10T03:15:37.095Z,10.79
2022-11-10T03:21:18.842Z,10.89
2022-11-10T03:27:00.427Z,10.95
2022-11-10T03:32:43.557Z,11.11
2022-11-10T03:38:25.117Z,11.22
2022-11-10T03:44:07.505Z,11.22
2022-11-10T03:49:50.684Z,11.39
2022-11-10T03:55:32.203Z,11.36
2022-11-10T04:01:14.530Z,11.58
2022-11-10T04:07:15.136Z,11.54
2022-11-10T04:13:20.185Z,11.50
2022-11-10T04:19:02.184Z,11.33
2022-11-10T04:24:45.607Z,11.27
2022-11-10T04:30:27.300Z,11.14
2022-11-10T04:36:10.219Z,11.08
2022-11-10T04:41:55.161Z,11.09
2022-11-10T04:47:39.059Z,11.06
2022-11-10T04:53:21.611Z,11.23
2022-11-10T04:59:05.377Z,11.11
2022-11-10T05:04:46.964Z,11.00
2022-11-10T05:10:28.879Z,11.13
2022-11-10T05:16:11.853Z,10.97
2022-11-10T05:21:53.452Z,10.81
2022-11-10T05:27:35.166Z,10.92
2022-11-10T05:33:18.536Z,10.99
2022-11-10T05:39:00.384Z,11.05
2022-11-10T05:44:42.496Z,11.14
2022-11-10T05:50:26.458Z,11.09
2022-11-10T05:56:08.944Z,11.10
2022-11-10T06:01:50.991Z,11.26
2022-11-10T06:07:34.137Z,11.29
2022-11-10T06:13:16.167Z,11.50
2022-11-10T06:18:58.155Z,11.43
2022-11-10T06:24:41.260Z,11.52
2022-11-10T06:30:23.381Z,11.53
2022-11-10T06:36:05.026Z,11.59
2022-11-10T06:41:48.064Z,11.56
2022-11-10T06:47:29.752Z,11.54
2022-11-10T06:53:13.645Z,11.58
2022-11-10T06:58:57.126Z,11.52
2022-11-10T07:04:39.101Z,11.45
2022-11-10T07:10:20.836Z,11.41
2022-11-10T07:16:07.535Z,11.51
2022-11-10T07:21:49.329Z,11.52
2022-11-10T07:27:32.526Z,11.72
2022-11-10T07:33:16.333Z,11.78
2022-11-10T07:38:57.867Z,12.02
2022-11-10T07:44:40.030Z,12.07
2022-11-10T07:50:25.080Z,12.30
2022-11-10T07:56:07.356Z,12.44
2022-11-10T08:01:49.137Z,12.64
2022-11-10T08:07:32.635Z,12.63
2022-11-10T08:13:14.708Z,12.39
2022-11-10T08:18:56.659Z,12.09
2022-11-10T08:24:39.972Z,11.99
2022-11-10T08:30:21.560Z,11.77
2022-11-10T08:36:03.688Z,11.82
2022-11-10T08:41:50.940Z,11.90
2022-11-10T08:47:32.896Z,11.94
2022-11-10T08:53:16.032Z,12.20
2022-11-10T08:58:59.308Z,12.47
2022-11-10T09:04:41.453Z,12.53
2022-11-10T09:10:23.720Z,12.58
2022-11-10T09:16:07.771Z,12.54
2022-11-10T09:21:49.535Z,12.67
2022-11-10T09:27:32.511Z,12.84
2022-11-10T09:33:15.625Z,13.12
2022-11-10T09:38:59.087Z,13.05
2022-11-10T09:44:47.600Z,12.86
2022-11-10T09:50:38.102Z,12.92
2022-11-10T09:56:23.006Z,13.01
2022-11-10T10:02:06.857Z,13.31
2022-11-10T10:07:55.707Z,13.39
2022-11-10T10:14:18.882Z,13.48
2022-11-10T10:20:05.428Z,13.55
2022-11-10T10:25:48.764Z,13.60
2022-11-10T10:31:35.138Z,13.64
2022-11-10T10:37:23.569Z,13.65
2022-11-10T10:43:07.145Z,13.78
2022-11-10T10:48:53.902Z,13.87
2022-11-10T10:54:44.733Z,14.00
2022-11-10T11:00:29.384Z,14.30
2022-11-10T11:06:21.060Z,14.50
2022-11-10T11:12:08.026Z,14.65
2022-11-10T11:17:58.123Z,14.77
2022-11-10T11:23:47.488Z,14.78
2022-11-10T11:29:42.806Z,14.77
2022-11-10T11:35:37.306Z,14.88
2022-11-10T11:41:25.524Z,14.92
2022-11-10T11:47:15.364Z,14.87
2022-11-10T11:53:05.379Z,14.89
2022-11-10T11:58:52.134Z,14.91
2022-11-10T12:04:43.842Z,14.82
2022-11-10T12:10:42.975Z,14.84
2022-11-10T12:16:28.307Z,14.78
2022-11-10T12:22:15.867Z,14.69
2022-11-10T12:28:09.378Z,14.66
2022-11-10T12:33:54.673Z,14.84
2022-11-10T12:39:44.171Z,14.81
2022-11-10T12:45:36.625Z,14.71
2022-11-10T12:51:23.907Z,14.38
2022-11-10T12:57:08.967Z,14.29
2022-11-10T13:02:52.548Z,14.21
2022-11-10T13:08:36.895Z,14.42
2022-11-10T13:14:24.339Z,14.59
2022-11-10T13:20:47.169Z,14.76
2022-11-10T13:26:56.461Z,14.72
2022-11-10T13:32:38.443Z,14.56
2022-11-10T13:38:35.429Z,14.64
2022-11-10T13:44:27.816Z,14.65
2022-11-10T13:50:22.298Z,14.79
2022-11-10T13:56:19.586Z,14.75
2022-11-10T14:02:43.470Z,14.53
2022-11-10T14:08:32.130Z,14.45
2022-11-10T14:14:19.837Z,14.28
2022-11-10T14:20:05.045Z,14.23
2022-11-10T14:25:47.029Z,14.17
2022-11-10T14:31:30.256Z,14.12
2022-11-10T14:37:16.320Z,14.19
2022-11-10T14:42:59.892Z,14.14
2022-11-10T14:48:44.113Z,14.20
2022-11-10T14:54:28.778Z,14.12
2022-11-10T15:00:15.676Z,14.17
2022-11-10T15:05:58.765Z,14.17
2022-11-10T15:11:42.043Z,14.31
2022-11-10T15:17:44.569Z,14.40
2022-11-10T15:23:33.771Z,14.32
2022-11-10T15:29:20.764Z,14.33
2022-11-10T15:35:12.063Z,14.33
2022-11-10T15:41:10.422Z,14.31
2022-11-10T15:46:53.824Z,14.20
2022-11-10T15:52:35.478Z,14.17
2022-11-10T15:58:21.124Z,14.12
2022-11-10T16:04:03.295Z,14.08
2022-11-10T16:09:45.031Z,14.01
2022-11-10T16:15:28.177Z,14.08
2022-11-10T16:21:12.973Z,14.08
2022-11-10T16:26:54.991Z,13.92
2022-11-10T16:32:38.052Z,13.89
2022-11-10T16:38:21.786Z,13.91
2022-11-10T16:44:06.734Z,13.82
2022-11-10T16:49:50.946Z,13.82
2022-11-10T16:55:33.098Z,13.80
2022-11-10T17:01:20.715Z,13.86
2022-11-10T17:07:03.617Z,13.85
2022-11-10T17:12:45.508Z,13.83
2022-11-10T17:18:27.420Z,13.73
2022-11-10T17:24:13.007Z,13.66
2022-11-10T17:29:54.430Z,13.51
2022-11-10T17:35:41.467Z,13.42
2022-11-10T17:41:24.328Z,13.42
2022-11-10T17:47:05.917Z,13.31
2022-11-10T17:52:48.249Z,13.27
2022-11-10T17:58:31.298Z,13.24
2022-11-10T18:04:13.788Z,13.09
2022-11-10T18:09:55.432Z,13.10
2022-11-10T18:15:42.656Z,13.11
2022-11-10T18:21:24.105Z,13.07
2022-11-10T18:27:06.059Z,13.08
2022-11-10T18:32:49.316Z,13.15
2022-11-10T18:38:31.338Z,13.09
2022-11-10T18:44:13.697Z,13.02
2022-11-10T18:49:57.053Z,13.06
2022-11-10T18:55:42.993Z,13.04
2022-11-10T19:01:28.026Z,13.04
2022-11-10T19:07:11.143Z,13.05
2022-11-10T19:12:53.187Z,13.08
2022-11-10T19:18:34.969Z,12.90
2022-11-10T19:24:27.519Z,12.80
2022-11-10T19:30:10.988Z,12.70
2022-11-10T19:35:52.669Z,12.64
2022-11-10T19:41:37.804Z,12.60
2022-11-10T19:47:19.351Z,12.63
2022-11-10T19:53:01.390Z,12.68
2022-11-10T19:58:44.862Z,12.71
2022-11-10T20:04:26.689Z,12.69
2022-11-10T20:10:09.242Z,12.68
2022-11-10T20:15:52.538Z,12.66
2022-11-10T20:21:34.433Z,12.58
2022-11-10T20:27:16.136Z,12.59
2022-11-10T20:32:59.279Z,12.58
2022-11-10T20:38:41.526Z,12.59
2022-11-10T20:44:23.294Z,12.63
2022-11-10T20:50:13.089Z,12.72
2022-11-10T20:55:58.866Z,12.82
2022-11-10T21:01:40.633Z,12.97
2022-11-10T21:07:23.878Z,12.95
2022-11-10T21:13:05.798Z,13.11
2022-11-10T21:18:47.231Z,13.19
2022-11-10T21:24:30.732Z,13.19
2022-11-10T21:30:22.539Z,13.12
2022-11-10T21:36:06.795Z,13.11
2022-11-10T21:41:50.046Z,13.03
2022-11-10T21:47:31.994Z,13.01
2022-11-10T21:53:13.594Z,13.01
2022-11-10T21:58:56.755Z,12.98
2022-11-10T22:04:38.414Z,12.88
2022-11-10T22:10:38.277Z,12.81
2022-11-10T22:16:41.368Z,12.73
2022-11-10T22:22:23.114Z,12.66
2022-11-10T22:28:05.103Z,12.61
2022-11-10T22:33:48.030Z,12.67
2022-11-10T22:39:49.613Z,12.58
2022-11-10T22:45:31.741Z,12.63
2022-11-10T22:51:14.729Z,12.73
2022-11-10T22:56:56.401Z,12.68
2022-11-10T23:02:38.393Z,12.70
2022-11-10T23:08:21.728Z,12.71
2022-11-10T23:14:03.427Z,12.71
2022-11-10T23:19:45.240Z,12.73
2022-11-10T23:25:28.604Z,12.70
2022-11-10T23:31:12.764Z,12.76
2022-11-10T23:36:54.725Z,12.75
2022-11-10T23:42:37.945Z,12.73
2022-11-10T23:48:19.744Z,12.69
2022-11-10T23:54:01.429Z,12.72
2022-11-10T23:59:44.524Z,12.76
